• Join FlightAware (Why Join?)
  • Login
  • US Flag 
07:05PM EDT


 

Airport Tracker/Info


-or-


 

Live Flight TrackerFlight Track Log ✈ SWA1707 ✈ 30-Apr-2013 ✈ KBNA - KMSY

Flight Track Log - Related Links

Times and Time Zones

All times are in EDT time to prevent confusion due to time zone crossing. See the SWA1707 flight status page for this flight to view local times or setup timezone preferences in your user account.

Time Position Orientation Groundspeed Altitude Reporting Facility
EDT Latitude Longitude Course Direction KTS MPH feet Rate Location/Type
05:55PM 36.0500 -86.7333 211° Southwest 222 255 4,400  Level Nashville TRACON
05:56PM 36.0000 -86.8000 227° Southwest 275 316 6,800 3,180 Climbing Nashville TRACON
05:57PM 35.9386 -86.8703 223° Southwest 295 339 10,800 3,240 Climbing Memphis Center
05:58PM 35.8700 -86.9525 224° Southwest 322 371 13,300 3,120 Climbing Memphis Center
05:59PM 35.7972 -87.0375 223° Southwest 356 410 17,100 3,600 Climbing Memphis Center
06:00PM 35.7006 -87.0950 206° Southwest 380 437 20,500 2,880 Climbing Memphis Center
06:01PM 35.6081 -87.1472 205° Southwest 398 458 22,900 1,200 Climbing Memphis Center
06:02PM 35.5053 -87.2022 204° Southwest 411 473 23,000 120 Climbing Memphis Center
06:03PM 35.4025 -87.2572 204° Southwest 411 473 23,200 1,380 Climbing Memphis Center
06:04PM 35.2994 -87.3117 203° Southwest 411 473 25,800 2,520 Climbing Memphis Center
06:05PM 35.1925 -87.3692 204° Southwest 416 479 28,300 2,280 Climbing Memphis Center
06:06PM 35.0769 -87.4289 203° Southwest 442 509 30,400 2,520 Climbing Memphis Center
06:07PM 34.9636 -87.4911 204° Southwest 449 517 33,400 1,800 Climbing Memphis Center
06:08PM 34.8503 -87.5483 203° Southwest 434 499 34,000 600 Climbing Memphis Center
06:09PM 34.7553 -87.5969 203° Southwest 404 465 34,600 960 Climbing Memphis Center
06:10PM 34.6481 -87.6508 202° Southwest 401 461 36,000 660 Climbing Memphis Center
06:11PM 34.5469 -87.7044 204° Southwest 400 460 36,000 480 Level Memphis Center
06:12PM 34.4458 -87.7556 203° Southwest 395 455 37,000 1,560 Climbing Memphis Center
06:13PM 34.3467 -87.8064 203° Southwest 395 455 39,200 1,500 Climbing Memphis Center
06:14PM 34.2517 -87.8569 204° Southwest 381 438 40,000 360 Climbing Memphis Center
06:15PM 34.1547 -87.9075 203° Southwest 376 433 40,000 -540 Level Memphis Center
06:16PM 34.0597 -87.9553 203° Southwest 376 433 39,000 -2,100 Descending Memphis Center
06:17PM 33.9667 -88.0028 203° Southwest 371 427 35,900 -3,360 Descending Memphis Center
06:18PM 33.8736 -88.0506 203° Southwest 381 438 32,300 -3,000 Descending Memphis Center
06:19PM 33.7517 -88.1161 204° Southwest 415 478 30,000 -1,200 Descending Memphis Center
06:20PM 33.6400 -88.1739 203° Southwest 432 497 30,000 -540 Level Memphis Center
06:21PM 33.5511 -88.2186 203° Southwest 432 497 29,000 -1,020 Descending Memphis Center
06:22PM 33.4206 -88.2839 203° Southwest 427 491 28,000 -540 Descending Memphis Center
06:23PM 33.3111 -88.3414 204° Southwest 427 491 28,000  Level Memphis Center
06:24PM 33.1972 -88.3986 203° Southwest 434 499 28,000 -1,020 Level Memphis Center
06:25PM 33.0831 -88.4556 203° Southwest 439 505 26,000 -1,020 Descending Memphis Center
06:26PM 32.9714 -88.5100 202° Southwest 439 505 26,000  Level Memphis Center
06:27PM 32.8594 -88.5692 204° Southwest 439 505 26,000  Level Memphis Center
06:28PM 32.7453 -88.6258 203° Southwest 439 505 26,000  Level Memphis Center
06:29PM 32.6292 -88.6800 201° Southwest 439 505 26,000  Level Memphis Center
06:30PM 32.5081 -88.6797 180° South 439 505 26,000  Level Memphis Center
06:31PM 32.3889 -88.6672 175° South 461 531 26,000  Level Memphis Center
06:32PM 32.2658 -88.6669 180° South 456 525 26,000  Level Memphis Center
06:33PM 32.1686 -88.7450 214° Southwest 420 483 26,000  Level Memphis Center
06:34PM 32.0739 -88.8300 217° Southwest 420 483 26,000  Level Memphis Center
06:35PM 31.9789 -88.9147 217° Southwest 426 490 26,000  Level Memphis Center
06:38PM 31.7767 -89.0975 218° Southwest 434 499 26,000 -300 Level Houston Center
06:39PM 31.6853 -89.1797 217° Southwest 418 481 25,200 -660 Descending Houston Center
06:41PM 31.5264 -89.3253 218° Southwest 357 411 24,000 -420 Descending Houston Center
06:42PM 31.4311 -89.4089 217° Southwest 358 412 24,000  Level Houston Center
06:43PM 31.3536 -89.4786 218° Southwest 355 409 24,000 -360 Level Houston Center
06:44PM 31.2794 -89.5444 217° Southwest 353 406 23,300 -840 Descending Houston Center
06:45PM 31.2042 -89.6128 218° Southwest 345 397 22,300 -1,020 Descending Houston Center
06:46PM 31.1281 -89.6800 217° Southwest 344 396 21,300 -1,080 Descending Houston Center
06:47PM 31.0367 -89.7622 218° Southwest 345 397 20,100 -1,080 Descending Houston Center
06:48PM 30.9619 -89.8278 217° Southwest 339 390 19,100 -1,020 Descending Houston Center
06:49PM 30.8897 -89.8917 217° Southwest 330 380 18,000 -1,020 Descending Houston Center
06:50PM 30.8189 -89.9553 218° Southwest 324 373 17,000 -1,080 Descending Houston Center
06:51PM 30.7469 -90.0192 217° Southwest 326 375 15,800 -1,680 Descending Houston Center
06:52PM 30.6525 -90.1033 217° Southwest 320 368 13,400 -1,980 Descending Houston Center
06:53PM 30.5894 -90.1442 209° Southwest 309 356 11,800 -1,560 Descending Houston Center
06:54PM 30.5106 -90.1528 185° South 290 334 10,500 -1,680 Descending Houston Center
06:55PM 30.4244 -90.1611 185° South 264 304 8,300 -1,860 Descending Houston Center
06:56PM 30.3647 -90.1667 185° South 264 304 6,700 -1,860 Descending Houston Center
06:57PM 30.2767 -90.1767 186° South 254 292 4,600 -1,380 Descending Houston Center
06:58PM 30.2172 -90.1814 184° South 242 278 3,900 -540 Descending Houston Center
06:59PM 30.1639 -90.1953 193° South 216 249 3,600 -900 Descending Houston Center
07:00PM 30.1122 -90.2108 195° South 200 230 2,100 -1,080 Descending Houston Center
07:01PM 30.0650 -90.2264 196° South 136 157 1,300 -780 Descending Houston Center
07:02PM 30.0383 -90.2353 196° South 140 161 600 -480 Descending Houston Center
07:03PM 29.9986 -90.2483 196° South 134 154 400 -240 Descending Houston Center
07:05PM 29.9833 -90.2500 190° South  Level FlightAware Approximate
07:12PM 29.9934 -90.2580 190° South  Level Estimated